Chickamaw Beach, Minnesota
Current Conditions -  °F | °C
As of 10:34 AM on Sunday 21 Dec 2014 (Local Time) from KPWC Reporting Station
Haze Haze  
Wind Chill: 23°   Ceiling: 500
Heat Index: 30°   Visibility: 3mi
Dew Point: 30°   Wind: 8mph
Humidity: 100%   Direction: 170°S
Pressure: 29.82"   Gusts: NA
Location:  46.6535°N, 94.5389°W
Report Text: KPWC 211634Z AUTO 17007KT 3SM BR OVC005 M01/M01 A2982 RMK AO2
Loading
Personal Weather Stations






























Interactive Weather Map New forecast layout! Learn more

10-Day Weather Forecast

Advertisements
Track Severe Weather on mobile